Warkworth, United Kingdom
Current Conditions -  °F | °C
As of 9:50 AM on Friday 31 Oct 2014 (Local Time) from EGQM Reporting Station
Haze Haze  
Wind Chill: 55°   Ceiling: Unl
Heat Index: 55°   Visibility: 2.6mi
Dew Point: 55°   Wind: 9mph
Humidity: 100%   Direction: 130°SE
Pressure: 29.85"   Gusts: NA
Location:  55.35°N, 1.6°W
Report Text: EGQM 310950Z AUTO 13008KT 4200 BR FEW180/// 13/13 Q1011
Loading
Personal Weather Stations






























Interactive Weather Map
Tropical Storm Tracking
New forecast layout! Learn more

10-Day Weather Forecast

Advertisements
Track Severe Weather on mobile